Robards, KY

12:52 AM CDT on May 24, 2017 (GMT -0500)
Denton Weather | | Change Station

Elev 502 ft 37.67 °N, 87.60 °W | Updated 2 seconds ago

Overcast
Overcast
64.0 °F
Feels Like 64.0 °F
N
0.0
Wind Variable Wind from NW
Gusts 1.8 mph

Today
High -- | Low -- °F
--% Chance of Precip.
Yesterday
High -- | Low -- °F
Precip. -- in
Pressure 29.66 in
Visibility 10.0 miles
Clouds Mostly Cloudy 7500 ft
Mostly Cloudy 11000 ft
Dew Point 58 °F
Humidity 80%
Rainfall 0.00 in
Snow Depth Not available.
5:33 AM 8:00 PM
Waning Crescent, 4% visible
METAR KEHR 240456Z AUTO 32006KT 10SM BKN075 BKN110 19/13 A2964 RMK AO2 SLP042 T01890128
Pressure 29.66 in
Visibility 10.0 miles
Clouds Mostly Cloudy 7500 ft
Mostly Cloudy 11000 ft
Dew Point 58 °F
Humidity 80%
Rainfall 0.00 in
Snow Depth Not available.
5:33 AM 8:00 PM
Waning Crescent, 4% visible
METAR KEHR 240456Z AUTO 32006KT 10SM BKN075 BKN110 19/13 A2964 RMK AO2 SLP042 T01890128

Get Severe Weather Alerts

Thanks for signing up!

Be on the lookout for a verification email in your inbox.

You'll start receiving the daily forecast at 6 AM.

×

10-Day Weather Forecast

Almanac

Astronomy

May. 24, 2017 Rise Set
Actual Time
Civil Twilight
Nautical Twilight
Astronomical Twilight
Moon
Length of Visible Light
Length of Day
Tomorrow will be .
, % of the Moon is Illuminated

Today's Extremes

State Highs State Lows

Community

WunderPhotos

Category 6

Welcome to Category 6. This is the collective home for Weather Underground's featured writeups by Dr. Jeff Masters (right), Bob Henson (left), Chris Burt, and other regular contributors.

Nearby

Air Quality

  Air Quality AQ Index Pollutant
Not available.

Snow Depth

Station Depth Elevation

Earthquake Activity

City Distance Mag. Time & Date
Minimum magnitude displayed is 2.5.

Coastal Water Temperatures

Place Temperature

Stations

Nearby Weather Stations

Station Location Temp. Windchill Dew Point Humidity Wind Precip. Elev Updated Type
                   

Watches & Warnings

There are currently no watches in effect.